createdAt,value
2023-03-13T00:00:18.539Z,98765.19
2023-03-13T00:02:46.720Z,98753.25
2023-03-13T00:05:14.344Z,98747.78
2023-03-13T00:07:42.086Z,98730.81
2023-03-13T00:10:09.690Z,98740.63
2023-03-13T00:12:37.657Z,98726.34
2023-03-13T00:15:05.293Z,98710.19
2023-03-13T00:17:33.619Z,98706.56
2023-03-13T00:20:01.614Z,98719.69
2023-03-13T00:22:29.336Z,98699.94
2023-03-13T00:24:59.536Z,98691.94
2023-03-13T00:27:27.137Z,98680.47
2023-03-13T00:29:54.900Z,98681.16
2023-03-13T00:32:22.521Z,98692.47
2023-03-13T00:34:50.157Z,98689.53
2023-03-13T00:37:18.136Z,98680.22
2023-03-13T00:39:45.716Z,98679.91
2023-03-13T00:42:13.313Z,98676.09
2023-03-13T00:44:40.945Z,98678.47
2023-03-13T00:47:08.545Z,98686.13
2023-03-13T00:49:36.140Z,98685.13
2023-03-13T00:52:03.760Z,98672.66
2023-03-13T00:54:31.318Z,98664.81
2023-03-13T00:56:58.887Z,98653.50
2023-03-13T00:59:26.524Z,98660.56
2023-03-13T01:01:54.867Z,98658.19
2023-03-13T01:04:22.510Z,98655.22
2023-03-13T01:06:50.183Z,98650.94
2023-03-13T01:09:18.248Z,98638.44
2023-03-13T01:11:45.831Z,98642.38
2023-03-13T01:14:13.996Z,98634.38
2023-03-13T01:16:41.614Z,98625.41
2023-03-13T01:19:11.832Z,98607.78
2023-03-13T01:21:40.524Z,98596.13
2023-03-13T01:24:08.108Z,98592.66
2023-03-13T01:26:35.827Z,98581.50
2023-03-13T01:29:03.405Z,98584.91
2023-03-13T01:31:31.420Z,98583.16
2023-03-13T01:33:59.098Z,98574.81
2023-03-13T01:36:26.700Z,98569.78
2023-03-13T01:38:54.583Z,98554.50
2023-03-13T01:41:22.151Z,98541.91
2023-03-13T01:43:49.737Z,98537.13
2023-03-13T01:46:18.021Z,98533.16
2023-03-13T01:48:45.698Z,98539.53
2023-03-13T01:51:13.847Z,98521.16
2023-03-13T01:53:41.710Z,98529.31
2023-03-13T01:56:09.278Z,98526.88
2023-03-13T01:58:36.893Z,98508.75
2023-03-13T02:01:04.512Z,98505.94
2023-03-13T02:03:32.416Z,98493.63
2023-03-13T02:06:00.021Z,98489.78
2023-03-13T02:08:27.590Z,98494.13
2023-03-13T02:10:55.121Z,98461.19
2023-03-13T02:13:22.742Z,98476.00
2023-03-13T02:15:50.886Z,98467.19
2023-03-13T02:18:18.478Z,98442.72
2023-03-13T02:20:47.085Z,98450.69
2023-03-13T02:23:14.656Z,98448.03
2023-03-13T02:25:42.233Z,98412.75
2023-03-13T02:28:10.174Z,98434.16
2023-03-13T02:30:37.751Z,98444.09
2023-03-13T02:33:05.286Z,98436.56
2023-03-13T02:35:33.294Z,98406.94
2023-03-13T02:38:00.896Z,98421.53
2023-03-13T02:40:29.016Z,98402.56
2023-03-13T02:42:57.602Z,98413.78
2023-03-13T02:45:25.186Z,98400.97
2023-03-13T02:47:52.744Z,98379.50
2023-03-13T02:50:20.372Z,98384.59
2023-03-13T02:52:48.331Z,98378.44
2023-03-13T02:55:18.131Z,98360.81
2023-03-13T02:57:45.796Z,98359.66
2023-03-13T03:00:13.391Z,98356.72
2023-03-13T03:02:40.963Z,98347.59
2023-03-13T03:05:08.912Z,98359.56
2023-03-13T03:07:36.437Z,98358.44
2023-03-13T03:10:03.991Z,98346.66
2023-03-13T03:12:31.577Z,98364.13
2023-03-13T03:14:59.145Z,98349.69
2023-03-13T03:17:27.170Z,98331.91
2023-03-13T03:19:54.791Z,98333.72
2023-03-13T03:22:22.373Z,98336.09
2023-03-13T03:24:49.938Z,98311.00
2023-03-13T03:27:30.154Z,98330.13
2023-03-13T03:29:57.705Z,98332.66
2023-03-13T03:32:25.281Z,98296.63
2023-03-13T03:34:52.941Z,98309.25
2023-03-13T03:37:20.488Z,98314.28
2023-03-13T03:39:48.354Z,98299.97
2023-03-13T03:42:15.950Z,98293.50
2023-03-13T03:44:43.564Z,98309.66
2023-03-13T03:47:11.211Z,98290.53
2023-03-13T03:49:38.854Z,98269.25
2023-03-13T03:52:07.029Z,98295.16
2023-03-13T03:54:35.210Z,98281.19
2023-03-13T03:57:02.867Z,98299.59
2023-03-13T03:59:30.936Z,98297.25
2023-03-13T04:01:58.573Z,98307.22
2023-03-13T04:04:26.804Z,98294.09
2023-03-13T04:06:54.377Z,98305.53
2023-03-13T04:09:21.934Z,98293.59
2023-03-13T04:11:49.521Z,98280.47
2023-03-13T04:14:17.101Z,98287.00
2023-03-13T04:16:45.264Z,98288.69
2023-03-13T04:19:12.903Z,98276.22
2023-03-13T04:21:40.792Z,98278.09
2023-03-13T04:24:08.387Z,98251.50
2023-03-13T04:26:36.002Z,98295.75
2023-03-13T04:29:03.624Z,98291.09
2023-03-13T04:31:31.156Z,98282.47
2023-03-13T04:33:58.749Z,98263.16
2023-03-13T04:36:26.366Z,98285.47
2023-03-13T04:38:54.021Z,98268.84
2023-03-13T04:41:22.231Z,98264.81
2023-03-13T04:43:50.288Z,98263.50
2023-03-13T04:46:18.627Z,98283.47
2023-03-13T04:48:46.914Z,98245.00
2023-03-13T04:51:14.485Z,98258.19
2023-03-13T04:53:42.651Z,98242.84
2023-03-13T04:56:10.271Z,98253.16
2023-03-13T04:58:37.857Z,98245.53
2023-03-13T05:01:05.486Z,98250.84
2023-03-13T05:03:33.085Z,98283.59
2023-03-13T05:06:02.426Z,98263.66
2023-03-13T05:08:30.006Z,98267.63
2023-03-13T05:10:57.887Z,98257.31
2023-03-13T05:13:25.504Z,98245.81
2023-03-13T05:15:53.143Z,98235.19
2023-03-13T05:18:21.289Z,98234.16
2023-03-13T05:20:48.837Z,98244.66
2023-03-13T05:23:16.442Z,98243.84
2023-03-13T05:25:44.115Z,98236.19
2023-03-13T05:28:12.176Z,98227.53
2023-03-13T05:30:40.116Z,98235.53
2023-03-13T05:33:07.769Z,98224.22
2023-03-13T05:35:35.432Z,98217.88
2023-03-13T05:38:03.118Z,98227.53
2023-03-13T05:40:30.847Z,98205.19
2023-03-13T05:42:59.733Z,98205.38
2023-03-13T05:45:27.321Z,98203.88
2023-03-13T05:47:54.949Z,98205.19
2023-03-13T05:50:22.908Z,98209.81
2023-03-13T05:52:50.519Z,98219.81
2023-03-13T05:55:18.711Z,98205.69
2023-03-13T05:57:46.730Z,98210.50
2023-03-13T06:00:14.361Z,98219.81
2023-03-13T06:02:42.121Z,98202.31
2023-03-13T06:05:09.774Z,98194.13
2023-03-13T06:07:38.296Z,98207.78
2023-03-13T06:10:06.016Z,98207.63
2023-03-13T06:12:33.922Z,98217.28
2023-03-13T06:15:01.563Z,98227.75
2023-03-13T06:17:29.378Z,98224.91
2023-03-13T06:19:57.326Z,98215.75
2023-03-13T06:22:24.943Z,98212.91
2023-03-13T06:24:52.726Z,98197.72
2023-03-13T06:27:20.284Z,98202.25
2023-03-13T06:29:47.925Z,98201.25
2023-03-13T06:32:15.945Z,98201.06
2023-03-13T06:34:43.907Z,98215.72
2023-03-13T06:37:11.668Z,98202.03
2023-03-13T06:39:39.446Z,98214.03
2023-03-13T06:42:07.085Z,98201.34
2023-03-13T06:44:35.043Z,98207.34
2023-03-13T06:47:02.707Z,98209.66
2023-03-13T06:49:30.361Z,98197.63
2023-03-13T06:51:57.999Z,98207.09
2023-03-13T06:54:25.771Z,98199.59
2023-03-13T06:56:55.065Z,98204.41
2023-03-13T06:59:22.657Z,98188.88
2023-03-13T07:01:50.512Z,98199.00
2023-03-13T07:04:20.268Z,98197.50
2023-03-13T07:06:47.963Z,98191.44
2023-03-13T07:09:15.994Z,98204.28
2023-03-13T07:11:43.587Z,98208.72
2023-03-13T07:14:17.020Z,98229.22
2023-03-13T07:16:45.447Z,98206.78
2023-03-13T07:19:13.209Z,98203.22
2023-03-13T07:21:41.452Z,98207.84
2023-03-13T07:24:09.516Z,98218.84
2023-03-13T07:26:37.184Z,98214.00
2023-03-13T07:29:05.720Z,98207.28
2023-03-13T07:31:34.279Z,98202.41
2023-03-13T07:34:02.892Z,98208.03
2023-03-13T07:36:31.096Z,98201.13
2023-03-13T07:38:58.967Z,98208.28
2023-03-13T07:41:26.913Z,98199.50
2023-03-13T07:43:54.655Z,98206.63
2023-03-13T07:46:23.297Z,98195.00
2023-03-13T07:48:51.330Z,98209.94
2023-03-13T07:51:20.544Z,98197.91
2023-03-13T07:53:51.558Z,98180.28
2023-03-13T07:56:19.217Z,98174.66
2023-03-13T07:58:47.236Z,98173.53
2023-03-13T08:01:14.987Z,98171.44
2023-03-13T08:03:43.060Z,98172.31
2023-03-13T08:06:10.950Z,98181.66
2023-03-13T08:08:38.738Z,98166.22
2023-03-13T08:11:07.643Z,98167.72
2023-03-13T08:13:35.786Z,98167.53
2023-03-13T08:16:03.608Z,98152.09
2023-03-13T08:18:34.874Z,98162.63
2023-03-13T08:21:02.614Z,98158.09
2023-03-13T08:23:30.786Z,98155.41
2023-03-13T08:25:58.729Z,98152.09
2023-03-13T08:28:26.509Z,98143.25
2023-03-13T08:30:54.424Z,98140.38
2023-03-13T08:33:22.177Z,98152.16
2023-03-13T08:35:50.474Z,98150.78
2023-03-13T08:38:18.833Z,98140.56
2023-03-13T08:40:46.585Z,98121.44
2023-03-13T08:43:14.376Z,98139.81
2023-03-13T08:45:42.285Z,98131.41
2023-03-13T08:48:10.196Z,98143.75
2023-03-13T08:50:37.914Z,98139.44
2023-03-13T08:53:05.753Z,98150.13
2023-03-13T08:55:33.616Z,98143.59
2023-03-13T08:58:01.311Z,98152.88
2023-03-13T09:00:29.724Z,98156.84
2023-03-13T09:02:57.518Z,98168.00
2023-03-13T09:05:25.230Z,98185.09
2023-03-13T09:07:53.095Z,98166.53
2023-03-13T09:10:21.154Z,98162.38
2023-03-13T09:12:49.770Z,98173.50
2023-03-13T09:15:17.655Z,98159.25
2023-03-13T09:17:45.509Z,98162.59
2023-03-13T09:20:13.184Z,98163.59
2023-03-13T09:22:41.133Z,98170.19
2023-03-13T09:25:09.719Z,98167.84
2023-03-13T09:27:37.511Z,98163.91
2023-03-13T09:30:05.505Z,98165.28
2023-03-13T09:32:33.490Z,98158.47
2023-03-13T09:35:01.305Z,98162.78
2023-03-13T09:37:29.169Z,98170.66
2023-03-13T09:39:57.798Z,98153.00
2023-03-13T09:42:25.639Z,98142.38
2023-03-13T09:44:53.612Z,98147.88
2023-03-13T09:47:21.391Z,98126.69
2023-03-13T09:49:50.005Z,98134.06
2023-03-13T09:52:17.996Z,98130.81
2023-03-13T09:54:46.068Z,98127.25
2023-03-13T09:57:13.815Z,98132.50
2023-03-13T09:59:43.889Z,98131.88
2023-03-13T10:02:12.193Z,98129.19
2023-03-13T10:04:41.922Z,98125.53
2023-03-13T10:07:10.183Z,98128.22
2023-03-13T10:09:37.937Z,98110.56
2023-03-13T10:12:05.771Z,98139.22
2023-03-13T10:14:34.124Z,98088.75
2023-03-13T10:17:01.889Z,98092.72
2023-03-13T10:19:29.720Z,98094.47
2023-03-13T10:21:57.744Z,98082.09
2023-03-13T10:24:25.491Z,98075.66
2023-03-13T10:26:53.899Z,98081.25
2023-03-13T10:29:21.808Z,98078.72
2023-03-13T10:31:50.336Z,98095.09
2023-03-13T10:34:18.098Z,98080.44
2023-03-13T10:36:46.068Z,98098.22
2023-03-13T10:39:15.188Z,98077.94
2023-03-13T10:41:43.035Z,98071.50
2023-03-13T10:44:10.921Z,98086.44
2023-03-13T10:46:38.682Z,98060.72
2023-03-13T10:49:06.418Z,98050.06
2023-03-13T10:51:35.163Z,98052.38
2023-03-13T10:54:03.223Z,98047.22
2023-03-13T10:56:31.012Z,98041.94
2023-03-13T10:58:59.179Z,98036.03
2023-03-13T11:01:27.871Z,98039.59
2023-03-13T11:03:56.373Z,98044.28
2023-03-13T11:06:24.293Z,98026.06
2023-03-13T11:08:52.230Z,98036.34
2023-03-13T11:11:20.305Z,98051.38
2023-03-13T11:13:48.126Z,98042.56
2023-03-13T11:16:16.412Z,98058.06
2023-03-13T11:18:44.210Z,98051.50
2023-03-13T11:21:18.179Z,98037.69
2023-03-13T11:23:46.852Z,98021.16
2023-03-13T11:26:14.700Z,98006.56
2023-03-13T11:28:43.022Z,98012.50
2023-03-13T11:31:10.911Z,98014.94
2023-03-13T11:33:38.988Z,98011.63
2023-03-13T11:36:06.949Z,98012.75
2023-03-13T11:38:34.836Z,98018.25
2023-03-13T11:41:03.694Z,97999.25
2023-03-13T11:43:31.515Z,97999.38
2023-03-13T11:45:59.477Z,97978.28
2023-03-13T11:48:27.554Z,97982.53
2023-03-13T11:50:55.309Z,97969.38
2023-03-13T11:53:23.723Z,97958.75
2023-03-13T11:55:52.034Z,97955.41
2023-03-13T11:58:19.817Z,97962.00
2023-03-13T12:00:47.726Z,97965.44
2023-03-13T12:03:15.932Z,97949.53
2023-03-13T12:05:46.139Z,97965.09
2023-03-13T12:08:13.905Z,97958.56
2023-03-13T12:10:41.874Z,97948.44
2023-03-13T12:13:09.773Z,97948.44
2023-03-13T12:15:37.585Z,97944.81
2023-03-13T12:18:06.447Z,97924.06
2023-03-13T12:20:34.838Z,97941.16
2023-03-13T12:23:02.905Z,97940.56
2023-03-13T12:25:30.696Z,97918.72
2023-03-13T12:27:59.037Z,97940.97
2023-03-13T12:30:27.677Z,97945.59
2023-03-13T12:32:55.808Z,97936.66
2023-03-13T12:35:23.722Z,97926.19
2023-03-13T12:37:51.726Z,97900.06
2023-03-13T12:40:19.854Z,97889.63
2023-03-13T12:42:48.370Z,97892.28
2023-03-13T12:45:16.330Z,97887.09
2023-03-13T12:47:44.458Z,97895.41
2023-03-13T12:50:12.585Z,97899.94
2023-03-13T12:52:40.467Z,97903.34
2023-03-13T12:55:08.916Z,97885.19
2023-03-13T12:57:36.886Z,97874.00
2023-03-13T13:00:05.890Z,97873.53
2023-03-13T13:02:34.040Z,97876.59
2023-03-13T13:05:01.988Z,97864.47
2023-03-13T13:07:29.968Z,97876.38
2023-03-13T13:09:57.876Z,97874.56
2023-03-13T13:12:26.162Z,97882.63
2023-03-13T13:14:54.006Z,97880.19
2023-03-13T13:17:21.998Z,97875.56
2023-03-13T13:19:50.516Z,97874.59
2023-03-13T13:22:18.593Z,97873.22
2023-03-13T13:24:47.996Z,97861.41
2023-03-13T13:27:15.762Z,97862.84
2023-03-13T13:29:43.571Z,97849.63
2023-03-13T13:32:11.758Z,97859.28
2023-03-13T13:34:42.545Z,97850.38
2023-03-13T13:37:10.403Z,97847.19
2023-03-13T13:39:38.377Z,97839.72
2023-03-13T13:42:06.288Z,97840.81
2023-03-13T13:44:34.406Z,97839.66
2023-03-13T13:47:02.371Z,97833.94
2023-03-13T13:49:30.160Z,97840.78
2023-03-13T13:51:58.046Z,97840.09
2023-03-13T13:54:26.109Z,97844.44
2023-03-13T13:56:55.854Z,97841.38
2023-03-13T13:59:24.974Z,97831.03
2023-03-13T14:01:53.057Z,97821.06
2023-03-13T14:04:20.953Z,97821.53
2023-03-13T14:06:48.687Z,97819.53
2023-03-13T14:09:17.323Z,97833.53
2023-03-13T14:11:45.222Z,97822.19
2023-03-13T14:14:13.255Z,97813.28
2023-03-13T14:16:42.537Z,97812.00
2023-03-13T14:19:10.430Z,97798.72
2023-03-13T14:21:38.948Z,97796.44
2023-03-13T14:24:06.945Z,97792.56
2023-03-13T14:26:34.897Z,97799.41
2023-03-13T14:29:03.089Z,97777.72
2023-03-13T14:31:31.531Z,97789.16
2023-03-13T14:33:59.514Z,97792.72
2023-03-13T14:36:27.393Z,97791.75
2023-03-13T14:38:55.433Z,97781.59
2023-03-13T14:41:23.597Z,97794.66
2023-03-13T14:43:51.526Z,97767.16
2023-03-13T14:46:19.907Z,97773.59
2023-03-13T14:48:47.795Z,97767.59
2023-03-13T14:51:16.754Z,97763.47
2023-03-13T14:53:45.914Z,97770.31
2023-03-13T14:56:14.390Z,97758.78
2023-03-13T14:58:43.785Z,97751.78
2023-03-13T15:01:11.921Z,97745.81
2023-03-13T15:03:40.135Z,97751.47
2023-03-13T15:06:08.640Z,97747.78
2023-03-13T15:08:36.756Z,97738.13
2023-03-13T15:11:05.483Z,97744.34
2023-03-13T15:13:33.556Z,97723.25
2023-03-13T15:16:01.595Z,97727.22
2023-03-13T15:18:29.384Z,97710.69
2023-03-13T15:20:57.186Z,97723.09
2023-03-13T15:23:26.209Z,97712.84
2023-03-13T15:25:54.453Z,97714.59
2023-03-13T15:28:22.337Z,97746.53
2023-03-13T15:30:50.316Z,97737.22
2023-03-13T15:33:18.342Z,97737.31
2023-03-13T15:35:47.262Z,97718.50
2023-03-13T15:38:15.751Z,97728.94
2023-03-13T15:40:43.655Z,97728.28
2023-03-13T15:43:11.589Z,97714.91
2023-03-13T15:45:39.564Z,97707.91
2023-03-13T15:48:07.599Z,97695.00
2023-03-13T15:50:35.447Z,97690.31
2023-03-13T15:53:03.312Z,97673.44
2023-03-13T15:55:31.045Z,97674.28
2023-03-13T15:57:58.920Z,97665.22
2023-03-13T16:00:27.576Z,97663.97
2023-03-13T16:02:55.305Z,97660.69
2023-03-13T16:05:23.208Z,97660.06
2023-03-13T16:07:51.078Z,97659.47
2023-03-13T16:10:19.357Z,97658.44
2023-03-13T16:12:47.877Z,97656.38
2023-03-13T16:15:15.813Z,97646.69
2023-03-13T16:17:43.500Z,97647.09
2023-03-13T16:20:11.397Z,97643.97
2023-03-13T16:22:39.472Z,97629.59
2023-03-13T16:25:08.233Z,97629.16
2023-03-13T16:27:36.127Z,97622.94
2023-03-13T16:30:04.751Z,97620.06
2023-03-13T16:32:33.140Z,97615.72
2023-03-13T16:35:01.041Z,97600.03
2023-03-13T16:37:29.439Z,97603.78
2023-03-13T16:39:57.495Z,97605.03
2023-03-13T16:42:25.365Z,97604.38
2023-03-13T16:44:53.473Z,97605.00
2023-03-13T16:47:21.261Z,97600.09
2023-03-13T16:49:49.815Z,97592.66
2023-03-13T16:52:17.811Z,97598.00
2023-03-13T16:54:46.072Z,97586.06
2023-03-13T16:57:14.032Z,97587.50
2023-03-13T16:59:42.046Z,97587.94
2023-03-13T17:02:10.571Z,97577.00
2023-03-13T17:04:38.560Z,97581.94
2023-03-13T17:07:06.504Z,97580.91
2023-03-13T17:09:34.449Z,97581.94
2023-03-13T17:12:02.312Z,97583.19
2023-03-13T17:14:30.813Z,97589.56
2023-03-13T17:16:58.664Z,97584.00
2023-03-13T17:19:26.466Z,97583.59
2023-03-13T17:21:54.424Z,97581.72
2023-03-13T17:24:22.325Z,97587.09
2023-03-13T17:26:50.783Z,97593.06
2023-03-13T17:29:19.192Z,97592.81
2023-03-13T17:31:47.093Z,97595.94
2023-03-13T17:34:16.893Z,97593.06
2023-03-13T17:36:45.779Z,97598.59
2023-03-13T17:39:15.679Z,97599.84
2023-03-13T17:41:43.547Z,97595.94
2023-03-13T17:44:11.486Z,97613.63
2023-03-13T17:46:39.300Z,97604.56
2023-03-13T17:49:07.908Z,97597.78
2023-03-13T17:51:36.616Z,97577.16
2023-03-13T17:54:04.428Z,97580.88
2023-03-13T17:56:32.394Z,97575.72
2023-03-13T17:59:00.282Z,97577.34
2023-03-13T18:01:28.621Z,97580.25
2023-03-13T18:03:57.306Z,97569.13
2023-03-13T18:06:25.230Z,97562.31
2023-03-13T18:08:52.986Z,97573.03
2023-03-13T18:11:20.747Z,97579.41
2023-03-13T18:13:48.805Z,97585.13
2023-03-13T18:16:17.307Z,97575.25
2023-03-13T18:18:45.094Z,97576.84
2023-03-13T18:21:12.933Z,97561.00
2023-03-13T18:23:41.290Z,97552.94
2023-03-13T18:26:09.114Z,97549.44
2023-03-13T18:28:37.795Z,97550.69
2023-03-13T18:31:05.641Z,97545.09
2023-03-13T18:33:33.541Z,97547.94
2023-03-13T18:36:01.713Z,97554.09
2023-03-13T18:38:29.465Z,97544.19
2023-03-13T18:40:57.833Z,97544.97
2023-03-13T18:43:25.796Z,97545.38
2023-03-13T18:45:53.934Z,97546.78
2023-03-13T18:48:21.783Z,97554.19
2023-03-13T18:50:49.890Z,97542.69
2023-03-13T18:53:18.467Z,97554.44
2023-03-13T18:55:46.216Z,97553.00
2023-03-13T18:58:14.737Z,97551.16
2023-03-13T19:00:42.668Z,97555.66
2023-03-13T19:03:10.569Z,97565.38
2023-03-13T19:05:40.412Z,97576.69
2023-03-13T19:08:08.395Z,97586.16
2023-03-13T19:10:38.801Z,97582.66
2023-03-13T19:13:07.202Z,97566.59
2023-03-13T19:15:35.117Z,97558.59
2023-03-13T19:18:04.135Z,97555.91
2023-03-13T19:20:32.071Z,97555.09
2023-03-13T19:23:01.028Z,97549.75
2023-03-13T19:25:29.642Z,97543.38
2023-03-13T19:27:58.000Z,97539.69
2023-03-13T19:30:26.515Z,97528.13
2023-03-13T19:32:54.331Z,97533.91
2023-03-13T19:35:22.639Z,97535.13
2023-03-13T19:37:50.376Z,97532.63
2023-03-13T19:40:18.284Z,97542.09
2023-03-13T19:42:46.677Z,97528.09
2023-03-13T19:45:14.785Z,97526.06
2023-03-13T19:47:43.274Z,97520.72
2023-03-13T19:50:12.524Z,97513.50
2023-03-13T19:52:40.531Z,97511.66
2023-03-13T19:55:09.437Z,97492.31
2023-03-13T19:57:37.360Z,97483.88
2023-03-13T20:00:06.491Z,97476.47
2023-03-13T20:02:34.329Z,97476.22
2023-03-13T20:05:02.242Z,97481.97
2023-03-13T20:07:30.230Z,97468.56
2023-03-13T20:09:58.332Z,97478.03
2023-03-13T20:12:26.721Z,97480.03
2023-03-13T20:14:54.492Z,97494.66
2023-03-13T20:17:22.400Z,97498.75
2023-03-13T20:19:51.275Z,97503.84
2023-03-13T20:22:19.159Z,97502.16
2023-03-13T20:24:46.922Z,97507.69
2023-03-13T20:27:14.755Z,97496.38
2023-03-13T20:29:42.818Z,97492.69
2023-03-13T20:32:11.973Z,97501.13
2023-03-13T20:34:40.331Z,97503.13
2023-03-13T20:37:08.239Z,97522.84
2023-03-13T20:39:36.146Z,97515.69
2023-03-13T20:42:04.114Z,97508.84
2023-03-13T20:44:32.554Z,97499.19
2023-03-13T20:47:00.635Z,97496.88
2023-03-13T20:49:28.710Z,97506.59
2023-03-13T20:51:56.572Z,97506.97
2023-03-13T20:54:24.510Z,97496.03
2023-03-13T20:56:55.593Z,97492.88
2023-03-13T20:59:23.509Z,97490.19
2023-03-13T21:01:51.408Z,97487.06
2023-03-13T21:04:19.484Z,97485.19
2023-03-13T21:06:47.386Z,97483.91
2023-03-13T21:09:15.944Z,97483.91
2023-03-13T21:11:43.826Z,97482.25
2023-03-13T21:14:11.624Z,97478.34
2023-03-13T21:16:39.553Z,97485.06
2023-03-13T21:19:07.526Z,97482.81
2023-03-13T21:21:35.948Z,97482.81
2023-03-13T21:24:03.838Z,97476.44
2023-03-13T21:26:32.687Z,97471.28
2023-03-13T21:29:00.366Z,97485.84
2023-03-13T21:31:28.251Z,97486.88
2023-03-13T21:33:56.860Z,97490.78
2023-03-13T21:36:24.670Z,97471.88
2023-03-13T21:38:52.442Z,97450.75
2023-03-13T21:41:20.847Z,97424.81
2023-03-13T21:43:48.673Z,97425.63
2023-03-13T21:46:17.345Z,97410.66
2023-03-13T21:51:13.974Z,97385.16
2023-03-13T21:53:42.303Z,97392.13
2023-03-13T21:56:15.261Z,97409.72
2023-03-13T21:58:44.001Z,97412.16
2023-03-13T22:01:11.906Z,97414.38
2023-03-13T22:03:40.202Z,97438.78
2023-03-13T22:06:07.889Z,97452.47
2023-03-13T22:08:35.632Z,97440.81
2023-03-13T22:11:03.958Z,97438.34
2023-03-13T22:13:31.748Z,97455.34
2023-03-13T22:15:59.640Z,97478.53
2023-03-13T22:18:27.428Z,97455.53
2023-03-13T22:20:58.172Z,97459.63
2023-03-13T22:23:27.738Z,97467.81
2023-03-13T22:25:55.731Z,97473.50
2023-03-13T22:28:23.442Z,97470.66
2023-03-13T22:30:51.262Z,97483.84
2023-03-13T22:33:19.282Z,97501.13
2023-03-13T22:35:49.903Z,97493.38
2023-03-13T22:38:17.693Z,97508.56
2023-03-13T22:40:45.498Z,97503.69
2023-03-13T22:43:13.191Z,97501.47
2023-03-13T22:45:40.878Z,97499.22
2023-03-13T22:48:09.584Z,97501.69
2023-03-13T22:50:37.394Z,97493.09
2023-03-13T22:53:05.180Z,97490.06
2023-03-13T22:55:32.906Z,97480.84
2023-03-13T22:58:00.640Z,97474.50
2023-03-13T23:00:29.140Z,97478.19
2023-03-13T23:02:56.856Z,97472.19
2023-03-13T23:05:24.600Z,97463.56
2023-03-13T23:07:52.241Z,97463.97
2023-03-13T23:10:20.246Z,97471.53
2023-03-13T23:12:48.030Z,97450.56
2023-03-13T23:15:15.732Z,97429.78
2023-03-13T23:17:43.382Z,97423.84
2023-03-13T23:20:13.373Z,97426.06
2023-03-13T23:22:41.098Z,97428.72
2023-03-13T23:25:09.386Z,97439.78
2023-03-13T23:27:37.034Z,97443.09
2023-03-13T23:30:04.876Z,97427.25
2023-03-13T23:32:32.990Z,97419.84
2023-03-13T23:35:01.010Z,97399.53
2023-03-13T23:37:29.190Z,97401.56
2023-03-13T23:39:56.871Z,97418.59
2023-03-13T23:42:24.472Z,97419.81
2023-03-13T23:44:52.135Z,97401.31
2023-03-13T23:47:19.798Z,97422.03
2023-03-13T23:49:47.978Z,97418.72
2023-03-13T23:52:15.575Z,97418.72
2023-03-13T23:54:43.714Z,97394.28
2023-03-13T23:57:11.330Z,97418.28
2023-03-13T23:59:38.926Z,97416.81
